Portada
METAR-TAF:

METAR-TAF

Aeroports :

Pitt-Greenville Airport

Greenville, Carolina del Nord, Estats Units d'Amèrica

latitud: 35-38N, longitud: 077-24W, altitud: 8 m

Observació

L'informe es va fer fa 20 minuts, a les 22:35 UTC
Vent calma
Temperatura 1°C
Humitat 59%
Pressió 1029 hPa
Visibilitat: 16.1 km
Cel clar

METAR: KPGV 132235Z AUTO 00000KT 10SM CLR 01/M06 A3039 RMK AO2

Hora: 17:55 (22:55 UTC)

Pronòstic

L'informe es va fer fa 5 hores i 17 minuts, a les 17:38 UTC
Pronòstic vàlid del 13 a les 18 UTC al 14 a les 18 UTC
Vent 9 kt del Nord/Nord-Est
Visibilitat: 10 km
Cel clar
A partir de les 14 a les 0200 UTC
Vent 3 kt amb direcció variable
Visibilitat: 10 km
Escasses núvols a una alçada de 3000 ft

TAF: KPGV 131738Z 1318/1418 02009KT P6SM SKC FM140200 VRB03KT P6SM FEW030 AMD LTD TO CLD VIS AND WIND

Observacions i pronòstics meteorològics de més de 4000 aeroports (METAR i TAF).

Les estacions disponibles són els punts grocs i vermells al mapa.

Posi el ratolí al punt desitjat per veure el nom de l'estació.

Feu clic per veure les observacions i els pronòstics meteorològics.

Per canviar el mapa: feu clic els botons verds amb una creu de color negre per apropar; al botó verd amb un guió per allunyar la imatge; o en les fletxes verdes per a mapes adjacents.


METAR-TAF: